createdAt,value
2018-04-08T00:00:33.545Z,14.93
2018-04-08T00:03:01.650Z,16.20
2018-04-08T00:05:29.744Z,14.70
2018-04-08T00:07:57.845Z,15.20
2018-04-08T00:10:25.960Z,15.60
2018-04-08T00:12:54.082Z,16.60
2018-04-08T00:15:22.175Z,15.83
2018-04-08T00:17:50.277Z,15.67
2018-04-08T00:20:18.377Z,15.43
2018-04-08T00:22:46.472Z,16.20
2018-04-08T00:25:14.602Z,16.63
2018-04-08T00:27:42.689Z,15.20
2018-04-08T00:30:10.813Z,15.90
2018-04-08T00:32:38.942Z,16.17
2018-04-08T00:35:07.046Z,15.50
2018-04-08T00:37:35.172Z,15.67
2018-04-08T00:40:03.312Z,14.90
2018-04-08T00:42:31.419Z,15.37
2018-04-08T00:44:59.563Z,15.63
2018-04-08T00:47:27.711Z,15.67
2018-04-08T00:49:55.826Z,15.70
2018-04-08T00:52:24.955Z,15.40
2018-04-08T00:54:53.070Z,16.67
2018-04-08T00:57:21.181Z,16.67
2018-04-08T00:59:49.357Z,15.93
2018-04-08T01:02:17.472Z,16.27
2018-04-08T01:04:45.573Z,15.80
2018-04-08T01:07:13.687Z,15.00
2018-04-08T01:09:41.856Z,16.90
2018-04-08T01:12:09.964Z,15.87
2018-04-08T01:14:38.215Z,13.67
2018-04-08T01:17:06.324Z,16.00
2018-04-08T01:19:34.510Z,16.50
2018-04-08T01:22:02.898Z,17.00
2018-04-08T01:24:31.008Z,16.63
2018-04-08T01:26:59.135Z,15.90
2018-04-08T01:29:27.269Z,13.43
2018-04-08T01:31:55.349Z,15.43
2018-04-08T01:34:23.477Z,16.40
2018-04-08T01:36:51.594Z,16.90
2018-04-08T01:39:19.704Z,15.87
2018-04-08T01:41:47.811Z,16.20
2018-04-08T01:44:15.890Z,16.10
2018-04-08T01:46:44.018Z,15.57
2018-04-08T01:49:12.136Z,15.80
2018-04-08T01:51:40.247Z,16.30
2018-04-08T01:54:08.582Z,15.53
2018-04-08T01:56:36.682Z,14.90
2018-04-08T01:59:04.802Z,14.07
2018-04-08T02:01:32.894Z,14.70
2018-04-08T02:04:00.994Z,15.47
2018-04-08T02:06:29.097Z,15.17
2018-04-08T02:08:57.210Z,15.47
2018-04-08T02:11:25.326Z,15.63
2018-04-08T02:13:53.405Z,14.93
2018-04-08T02:16:21.536Z,15.67
2018-04-08T02:18:49.649Z,16.63
2018-04-08T02:21:17.786Z,17.00
2018-04-08T02:23:45.871Z,16.23
2018-04-08T02:26:13.967Z,15.27
2018-04-08T02:28:43.575Z,16.40
2018-04-08T02:31:11.654Z,15.43
2018-04-08T02:33:39.874Z,15.37
2018-04-08T02:36:07.980Z,15.50
2018-04-08T02:38:36.096Z,14.63
2018-04-08T02:41:04.195Z,15.37
2018-04-08T02:43:32.407Z,15.93
2018-04-08T02:46:00.506Z,14.80
2018-04-08T02:48:28.639Z,14.93
2018-04-08T02:50:56.761Z,14.70
2018-04-08T02:53:24.853Z,16.03
2018-04-08T02:55:53.167Z,15.47
2018-04-08T02:58:21.268Z,15.43
2018-04-08T03:00:49.374Z,14.63
2018-04-08T03:03:17.470Z,15.07
2018-04-08T03:05:45.572Z,15.40
2018-04-08T03:08:13.659Z,14.97
2018-04-08T03:10:41.802Z,14.63
2018-04-08T03:13:09.898Z,15.77
2018-04-08T03:15:38.008Z,14.37
2018-04-08T03:18:06.104Z,14.07
2018-04-08T03:20:34.975Z,15.13
2018-04-08T03:23:03.098Z,15.63
2018-04-08T03:25:31.202Z,15.03
2018-04-08T03:27:59.309Z,15.47
2018-04-08T03:30:27.414Z,16.40
2018-04-08T03:32:55.524Z,16.80
2018-04-08T03:35:23.642Z,15.70
2018-04-08T03:37:51.767Z,16.70
2018-04-08T03:40:19.865Z,15.93
2018-04-08T03:42:47.974Z,15.10
2018-04-08T03:45:16.092Z,15.53
2018-04-08T03:47:44.187Z,14.40
2018-04-08T03:50:12.320Z,14.47
2018-04-08T03:52:40.416Z,14.20
2018-04-08T03:55:08.678Z,14.90
2018-04-08T03:57:36.896Z,14.57
2018-04-08T04:00:05.004Z,14.50
2018-04-08T04:02:33.084Z,14.97
2018-04-08T04:05:01.192Z,15.80
2018-04-08T04:07:29.285Z,15.63
2018-04-08T04:09:57.372Z,15.93
2018-04-08T04:12:25.455Z,16.00
2018-04-08T04:14:53.554Z,15.20
2018-04-08T04:17:21.634Z,15.20
2018-04-08T04:20:01.360Z,16.20
2018-04-08T04:22:41.135Z,14.37
2018-04-08T04:25:25.741Z,14.87
2018-04-08T04:27:53.865Z,15.40
2018-04-08T04:30:22.042Z,14.87
2018-04-08T04:32:50.309Z,14.30
2018-04-08T04:35:18.403Z,16.63
2018-04-08T04:37:46.727Z,15.70
2018-04-08T04:40:15.163Z,15.73
2018-04-08T04:42:43.561Z,15.90
2018-04-08T04:45:11.658Z,15.17
2018-04-08T04:47:39.987Z,15.37
2018-04-08T04:50:08.199Z,15.73
2018-04-08T04:52:36.334Z,15.70
2018-04-08T04:55:04.674Z,15.20
2018-04-08T04:57:33.207Z,15.83
2018-04-08T05:00:01.345Z,16.60
2018-04-08T05:02:29.491Z,15.23
2018-04-08T05:04:57.964Z,14.57
2018-04-08T05:07:26.668Z,14.23
2018-04-08T05:09:54.887Z,14.47
2018-04-08T05:12:23.273Z,15.13
2018-04-08T05:14:51.623Z,14.73
2018-04-08T05:17:19.994Z,15.67
2018-04-08T05:19:48.365Z,14.53
2018-04-08T05:22:16.479Z,14.03
2018-04-08T05:24:44.836Z,14.63
2018-04-08T05:27:13.198Z,14.23
2018-04-08T05:29:41.321Z,13.27
2018-04-08T05:32:09.455Z,13.07
2018-04-08T05:34:38.030Z,13.67
2018-04-08T05:37:06.428Z,14.67
2018-04-08T05:39:34.780Z,14.77
2018-04-08T05:42:03.190Z,13.10
2018-04-08T05:44:31.363Z,13.80
2018-04-08T05:46:59.917Z,14.73
2018-04-08T05:49:28.133Z,13.77
2018-04-08T05:51:56.271Z,13.43
2018-04-08T05:54:24.423Z,13.10
2018-04-08T05:56:52.742Z,12.73
2018-04-08T05:59:20.848Z,14.03
2018-04-08T06:01:48.971Z,14.13
2018-04-08T06:04:17.315Z,12.93
2018-04-08T06:06:45.732Z,13.90
2018-04-08T06:09:13.823Z,13.23
2018-04-08T06:11:42.011Z,13.57
2018-04-08T06:14:10.424Z,13.60
2018-04-08T06:16:39.367Z,13.27
2018-04-08T06:19:07.534Z,14.00
2018-04-08T06:21:35.622Z,12.17
2018-04-08T06:24:03.967Z,13.30
2018-04-08T06:26:32.324Z,12.40
2018-04-08T06:29:00.497Z,12.00
2018-04-08T06:31:28.607Z,12.50
2018-04-08T06:33:56.730Z,12.90
2018-04-08T06:36:24.823Z,11.73
2018-04-08T06:38:53.135Z,12.97
2018-04-08T06:41:22.332Z,13.53
2018-04-08T06:43:50.534Z,12.77
2018-04-08T06:46:18.680Z,12.07
2018-04-08T06:48:46.775Z,12.13
2018-04-08T06:51:14.932Z,13.37
2018-04-08T06:53:43.199Z,13.17
2018-04-08T06:56:11.347Z,11.47
2018-04-08T06:58:39.806Z,12.67
2018-04-08T07:01:07.988Z,12.10
2018-04-08T07:03:36.145Z,12.83
2018-04-08T07:06:04.549Z,12.53
2018-04-08T07:08:32.910Z,12.47
2018-04-08T07:11:01.018Z,11.73
2018-04-08T07:13:29.146Z,11.77
2018-04-08T07:15:57.407Z,11.37
2018-04-08T07:18:25.772Z,10.83
2018-04-08T07:20:53.974Z,11.27
2018-04-08T07:23:22.368Z,12.40
2018-04-08T07:25:50.678Z,12.27
2018-04-08T07:28:19.112Z,11.07
2018-04-08T07:30:47.381Z,11.07
2018-04-08T07:33:15.613Z,11.47
2018-04-08T07:35:43.855Z,11.13
2018-04-08T07:38:12.326Z,11.43
2018-04-08T07:40:40.905Z,10.90
2018-04-08T07:43:09.032Z,9.10
2018-04-08T07:45:37.461Z,9.07
2018-04-08T07:48:06.141Z,10.47
2018-04-08T07:50:34.420Z,10.67
2018-04-08T07:53:03.066Z,9.67
2018-04-08T07:55:31.491Z,10.40
2018-04-08T07:57:59.958Z,10.10
2018-04-08T08:00:28.261Z,9.77
2018-04-08T08:02:56.623Z,10.23
2018-04-08T08:05:24.982Z,8.57
2018-04-08T08:07:53.474Z,10.50
2018-04-08T08:10:22.903Z,10.40
2018-04-08T08:12:51.276Z,9.83
2018-04-08T08:15:19.517Z,11.00
2018-04-08T08:17:48.216Z,10.50
2018-04-08T08:20:16.412Z,10.67
2018-04-08T08:22:44.844Z,10.37
2018-04-08T08:25:13.102Z,9.90
2018-04-08T08:27:41.620Z,10.40
2018-04-08T08:30:11.122Z,10.40
2018-04-08T08:32:39.258Z,10.53
2018-04-08T08:35:07.472Z,11.43
2018-04-08T08:37:35.673Z,10.67
2018-04-08T08:40:03.826Z,10.97
2018-04-08T08:42:32.052Z,10.97
2018-04-08T08:45:00.246Z,11.40
2018-04-08T08:47:28.474Z,11.13
2018-04-08T08:49:56.715Z,10.97
2018-04-08T08:52:25.201Z,10.53
2018-04-08T08:54:53.339Z,10.70
2018-04-08T08:57:21.461Z,11.37
2018-04-08T08:59:49.787Z,10.67
2018-04-08T09:02:19.950Z,12.00
2018-04-08T09:04:48.202Z,11.67
2018-04-08T09:07:16.388Z,12.20
2018-04-08T09:09:44.822Z,12.53
2018-04-08T09:12:13.025Z,11.20
2018-04-08T09:14:41.140Z,12.10
2018-04-08T09:17:09.247Z,11.33
2018-04-08T09:19:41.254Z,11.67
2018-04-08T09:22:15.205Z,12.20
2018-04-08T09:24:44.890Z,11.87
2018-04-08T09:27:13.082Z,11.27
2018-04-08T09:29:41.206Z,11.40
2018-04-08T09:32:09.329Z,11.70
2018-04-08T09:34:37.542Z,11.27
2018-04-08T09:37:05.788Z,13.43
2018-04-08T09:39:33.914Z,12.70
2018-04-08T09:42:02.327Z,12.30
2018-04-08T09:44:30.541Z,12.57
2018-04-08T09:46:58.747Z,12.20
2018-04-08T09:49:27.172Z,12.50
2018-04-08T09:51:56.360Z,12.53
2018-04-08T09:54:24.465Z,13.20
2018-04-08T09:56:52.726Z,11.77
2018-04-08T09:59:21.563Z,13.93
2018-04-08T10:01:51.668Z,13.67
2018-04-08T10:04:20.057Z,13.60
2018-04-08T10:06:48.305Z,13.87
2018-04-08T10:09:16.501Z,12.27
2018-04-08T10:11:44.931Z,13.07
2018-04-08T10:14:13.276Z,13.90
2018-04-08T10:16:41.381Z,14.00
2018-04-08T10:19:09.729Z,13.87
2018-04-08T10:21:37.982Z,13.03
2018-04-08T10:24:06.059Z,14.10
2018-04-08T10:26:34.288Z,12.80
2018-04-08T10:29:02.689Z,14.67
2018-04-08T10:31:30.831Z,14.50
2018-04-08T10:33:59.074Z,15.43
2018-04-08T10:36:27.391Z,13.73
2018-04-08T10:38:55.606Z,14.30
2018-04-08T10:41:23.843Z,15.47
2018-04-08T10:43:52.045Z,15.23
2018-04-08T10:46:20.525Z,15.50
2018-04-08T10:48:48.844Z,14.57
2018-04-08T10:51:17.388Z,15.40
2018-04-08T10:53:45.768Z,16.90
2018-04-08T10:56:13.941Z,15.53
2018-04-08T10:58:42.273Z,14.50
2018-04-08T11:01:10.714Z,17.93
2018-04-08T11:03:39.154Z,16.93
2018-04-08T11:06:07.383Z,16.53
2018-04-08T11:08:35.651Z,16.27
2018-04-08T11:11:04.053Z,22.13
2018-04-08T11:13:32.455Z,16.00
2018-04-08T11:16:00.922Z,16.93
2018-04-08T11:18:29.396Z,18.70
2018-04-08T11:20:57.502Z,20.87
2018-04-08T11:23:25.689Z,16.17
2018-04-08T11:25:53.802Z,17.60
2018-04-08T11:28:21.964Z,15.90
2018-04-08T11:30:50.419Z,17.37
2018-04-08T11:33:18.545Z,17.27
2018-04-08T11:35:46.808Z,18.07
2018-04-08T11:38:14.963Z,17.27
2018-04-08T11:40:43.216Z,17.63
2018-04-08T11:43:11.369Z,18.03
2018-04-08T11:45:39.557Z,19.77
2018-04-08T11:48:07.877Z,19.27
2018-04-08T11:50:35.980Z,18.20
2018-04-08T11:53:04.156Z,17.23
2018-04-08T11:55:33.011Z,18.27
2018-04-08T11:58:01.144Z,17.90
2018-04-08T12:00:30.897Z,17.97
2018-04-08T12:02:59.263Z,17.80
2018-04-08T12:05:27.511Z,17.57
2018-04-08T12:07:55.750Z,18.63
2018-04-08T12:10:24.151Z,18.20
2018-04-08T12:12:52.354Z,19.50
2018-04-08T12:15:20.702Z,17.20
2018-04-08T12:17:49.142Z,17.93
2018-04-08T12:20:17.485Z,18.07
2018-04-08T12:22:45.719Z,16.70
2018-04-08T12:25:13.986Z,17.70
2018-04-08T12:27:42.106Z,17.90
2018-04-08T12:30:10.572Z,18.00
2018-04-08T12:32:38.718Z,18.07
2018-04-08T12:35:06.805Z,18.90
2018-04-08T12:37:35.135Z,16.83
2018-04-08T12:40:03.320Z,16.60
2018-04-08T12:42:31.472Z,15.33
2018-04-08T12:44:59.757Z,17.73
2018-04-08T12:47:28.349Z,15.13
2018-04-08T12:49:57.447Z,15.20
2018-04-08T12:52:25.718Z,16.47
2018-04-08T12:54:54.170Z,13.10
2018-04-08T12:57:22.573Z,15.03
2018-04-08T12:59:51.728Z,15.20
2018-04-08T13:02:21.112Z,13.97
2018-04-08T13:04:49.269Z,12.93
2018-04-08T13:07:17.590Z,14.30
2018-04-08T13:09:45.797Z,15.00
2018-04-08T13:12:13.936Z,16.53
2018-04-08T13:14:42.130Z,14.83
2018-04-08T13:17:10.291Z,15.77
2018-04-08T13:19:38.386Z,15.03
2018-04-08T13:22:06.550Z,13.50
2018-04-08T13:24:34.919Z,13.70
2018-04-08T13:27:03.391Z,14.63
2018-04-08T13:29:31.495Z,13.70
2018-04-08T13:32:00.084Z,13.17
2018-04-08T13:34:28.285Z,14.50
2018-04-08T13:36:56.416Z,13.70
2018-04-08T13:39:24.565Z,14.90
2018-04-08T13:41:52.931Z,15.67
2018-04-08T13:44:21.056Z,17.03
2018-04-08T13:46:49.168Z,17.23
2018-04-08T13:49:17.520Z,17.57
2018-04-08T13:51:45.726Z,17.80
2018-04-08T13:54:14.024Z,17.87
2018-04-08T13:56:42.330Z,16.70
2018-04-08T13:59:10.703Z,16.93
2018-04-08T14:01:38.843Z,18.00
2018-04-08T14:04:06.908Z,17.07
2018-04-08T14:06:35.138Z,19.20
2018-04-08T14:09:03.381Z,17.07
2018-04-08T14:11:31.527Z,16.90
2018-04-08T14:13:59.832Z,18.17
2018-04-08T14:16:28.048Z,18.43
2018-04-08T14:18:56.118Z,17.00
2018-04-08T14:21:24.542Z,19.37
2018-04-08T14:23:52.727Z,17.57
2018-04-08T14:26:21.087Z,17.53
2018-04-08T14:28:49.180Z,18.27
2018-04-08T14:31:17.527Z,16.50
2018-04-08T14:33:45.931Z,16.47
2018-04-08T14:36:14.056Z,17.17
2018-04-08T14:38:42.616Z,15.77
2018-04-08T14:41:10.810Z,16.33
2018-04-08T14:43:38.962Z,15.17
2018-04-08T14:46:07.161Z,16.30
2018-04-08T14:48:35.509Z,17.00
2018-04-08T14:51:03.753Z,15.47
2018-04-08T14:53:33.069Z,17.83
2018-04-08T14:56:02.069Z,16.57
2018-04-08T14:58:31.549Z,19.20
2018-04-08T15:00:59.936Z,17.37
2018-04-08T15:03:28.486Z,18.47
2018-04-08T15:05:56.638Z,18.57
2018-04-08T15:08:25.010Z,17.03
2018-04-08T15:10:53.585Z,18.07
2018-04-08T15:13:21.874Z,18.00
2018-04-08T15:15:50.198Z,18.90
2018-04-08T15:18:18.340Z,17.47
2018-04-08T15:20:46.455Z,19.13
2018-04-08T15:23:14.980Z,19.03
2018-04-08T15:25:43.613Z,17.33
2018-04-08T15:28:11.763Z,19.17
2018-04-08T15:30:40.141Z,18.70
2018-04-08T15:33:08.388Z,19.67
2018-04-08T15:35:37.082Z,17.60
2018-04-08T15:38:05.496Z,17.90
2018-04-08T15:40:33.609Z,18.97
2018-04-08T15:43:01.750Z,20.10
2018-04-08T15:45:30.042Z,19.33
2018-04-08T15:47:58.288Z,18.67
2018-04-08T15:50:26.468Z,19.37
2018-04-08T15:52:54.682Z,18.87
2018-04-08T15:55:23.210Z,16.53
2018-04-08T15:57:51.766Z,16.53
2018-04-08T16:00:20.019Z,15.47
2018-04-08T16:02:48.491Z,16.50
2018-04-08T16:05:16.589Z,15.40
2018-04-08T16:07:44.927Z,16.83
2018-04-08T16:10:13.492Z,15.93
2018-04-08T16:12:41.650Z,16.87
2018-04-08T16:15:10.029Z,17.77
2018-04-08T16:17:38.363Z,17.43
2018-04-08T16:20:06.589Z,18.37
2018-04-08T16:22:35.143Z,20.60
2018-04-08T16:25:03.330Z,18.37
2018-04-08T16:27:31.619Z,20.63
2018-04-08T16:30:00.298Z,19.33
2018-04-08T16:32:28.864Z,19.73
2018-04-08T16:34:57.422Z,19.67
2018-04-08T16:37:25.830Z,16.87
2018-04-08T16:39:53.993Z,18.47
2018-04-08T16:42:22.561Z,20.57
2018-04-08T16:44:51.092Z,17.13
2018-04-08T16:47:19.228Z,19.43
2018-04-08T16:49:47.560Z,21.57
2018-04-08T16:52:15.820Z,22.13
2018-04-08T16:54:43.997Z,20.43
2018-04-08T16:57:12.512Z,22.17
2018-04-08T16:59:40.796Z,20.67
2018-04-08T17:02:08.912Z,20.13
2018-04-08T17:04:37.014Z,21.13
2018-04-08T17:07:05.130Z,20.60
2018-04-08T17:09:33.458Z,20.37
2018-04-08T17:12:01.627Z,20.37
2018-04-08T17:14:29.878Z,19.97
2018-04-08T17:16:58.252Z,19.83
2018-04-08T17:19:26.382Z,17.87
2018-04-08T17:21:54.526Z,19.23
2018-04-08T17:24:22.773Z,19.57
2018-04-08T17:26:51.178Z,17.70
2018-04-08T17:29:19.580Z,20.47
2018-04-08T17:31:47.761Z,19.77
2018-04-08T17:34:15.940Z,21.90
2018-04-08T17:36:44.150Z,20.57
2018-04-08T17:39:12.459Z,20.73
2018-04-08T17:41:40.694Z,21.60
2018-04-08T17:44:08.777Z,21.30
2018-04-08T17:46:37.190Z,21.30
2018-04-08T17:49:05.638Z,22.17
2018-04-08T17:51:33.743Z,21.07
2018-04-08T17:54:21.633Z,19.37
2018-04-08T17:57:01.083Z,22.60
2018-04-08T17:59:29.214Z,22.17
2018-04-08T18:01:57.491Z,20.70
2018-04-08T18:04:25.673Z,22.07
2018-04-08T18:06:53.772Z,22.10
2018-04-08T18:09:24.548Z,21.53
2018-04-08T18:11:52.976Z,20.30
2018-04-08T18:14:21.059Z,19.43
2018-04-08T18:16:49.131Z,20.17
2018-04-08T18:19:17.232Z,20.73
2018-04-08T18:21:45.341Z,21.60
2018-04-08T18:24:13.420Z,23.33
2018-04-08T18:26:41.509Z,23.77
2018-04-08T18:29:09.608Z,23.43
2018-04-08T18:31:37.731Z,24.40
2018-04-08T18:34:05.834Z,23.70
2018-04-08T18:36:33.961Z,21.70
2018-04-08T18:39:02.099Z,22.40
2018-04-08T18:41:30.423Z,20.63
2018-04-08T18:43:58.536Z,21.40
2018-04-08T18:46:26.636Z,23.73
2018-04-08T18:48:54.867Z,22.00
2018-04-08T18:51:23.031Z,22.57
2018-04-08T18:53:51.154Z,23.80
2018-04-08T18:56:19.444Z,22.83
2018-04-08T18:58:47.991Z,21.27
2018-04-08T19:01:16.304Z,19.87
2018-04-08T19:03:45.186Z,20.20
2018-04-08T19:06:13.364Z,19.50
2018-04-08T19:08:41.516Z,18.70
2018-04-08T19:11:10.257Z,21.33
2018-04-08T19:13:38.396Z,20.50
2018-04-08T19:16:06.560Z,19.87
2018-04-08T19:18:34.754Z,21.23
2018-04-08T19:21:02.907Z,16.80
2018-04-08T19:23:31.097Z,19.67
2018-04-08T19:25:59.188Z,22.03
2018-04-08T19:28:27.322Z,21.73
2018-04-08T19:30:55.405Z,22.00
2018-04-08T19:33:23.549Z,23.67
2018-04-08T19:35:51.648Z,23.13
2018-04-08T19:38:20.007Z,22.93
2018-04-08T19:40:48.144Z,22.13
2018-04-08T19:43:16.271Z,26.53
2018-04-08T19:45:44.411Z,25.50
2018-04-08T19:48:12.531Z,25.40
2018-04-08T19:50:40.655Z,24.97
2018-04-08T19:53:08.775Z,26.93
2018-04-08T19:55:37.111Z,26.20
2018-04-08T19:58:06.506Z,26.17
2018-04-08T20:00:36.112Z,25.93
2018-04-08T20:03:04.258Z,27.03
2018-04-08T20:05:32.564Z,26.73
2018-04-08T20:08:00.669Z,28.47
2018-04-08T20:10:28.792Z,26.73
2018-04-08T20:12:56.922Z,26.73
2018-04-08T20:15:27.742Z,27.77
2018-04-08T20:17:55.855Z,27.30
2018-04-08T20:20:23.968Z,28.30
2018-04-08T20:22:52.127Z,29.07
2018-04-08T20:25:20.262Z,26.50
2018-04-08T20:27:48.393Z,28.30
2018-04-08T20:30:16.659Z,27.57
2018-04-08T20:32:45.025Z,30.03
2018-04-08T20:35:13.326Z,28.70
2018-04-08T20:37:41.428Z,28.90
2018-04-08T20:40:09.565Z,30.70
2018-04-08T20:42:37.657Z,29.30
2018-04-08T20:45:05.824Z,29.53
2018-04-08T20:47:33.935Z,29.13
2018-04-08T20:50:02.120Z,28.60
2018-04-08T20:52:30.253Z,28.47
2018-04-08T20:54:58.466Z,29.83
2018-04-08T20:57:26.935Z,28.57
2018-04-08T20:59:55.244Z,27.27
2018-04-08T21:02:23.341Z,28.47
2018-04-08T21:04:51.482Z,29.90
2018-04-08T21:07:19.576Z,29.90
2018-04-08T21:09:47.733Z,29.57
2018-04-08T21:12:16.164Z,28.87
2018-04-08T21:14:44.390Z,27.47
2018-04-08T21:17:12.509Z,29.43
2018-04-08T21:19:40.637Z,27.93
2018-04-08T21:22:08.779Z,29.33
2018-04-08T21:24:36.875Z,27.73
2018-04-08T21:27:04.963Z,27.53
2018-04-08T21:29:33.097Z,30.77
2018-04-08T21:32:01.213Z,29.03
2018-04-08T21:34:29.298Z,29.73
2018-04-08T21:36:57.430Z,28.13
2018-04-08T21:39:25.512Z,30.20
2018-04-08T21:41:53.615Z,29.07
2018-04-08T21:44:21.725Z,30.70
2018-04-08T21:46:49.828Z,28.73
2018-04-08T21:49:17.930Z,29.43
2018-04-08T21:51:46.019Z,28.53
2018-04-08T21:54:14.124Z,30.43
2018-04-08T21:56:42.430Z,31.63
2018-04-08T21:59:10.614Z,29.50
2018-04-08T22:01:38.723Z,30.57
2018-04-08T22:04:06.822Z,30.10
2018-04-08T22:06:34.921Z,29.80
2018-04-08T22:09:03.033Z,29.77
2018-04-08T22:11:31.134Z,30.93
2018-04-08T22:13:59.230Z,31.83
2018-04-08T22:16:27.565Z,29.63
2018-04-08T22:18:55.679Z,30.20
2018-04-08T22:21:23.830Z,30.60
2018-04-08T22:23:51.932Z,28.83
2018-04-08T22:26:20.061Z,30.00
2018-04-08T22:28:48.180Z,30.40
2018-04-08T22:31:16.305Z,28.53
2018-04-08T22:33:44.411Z,30.23
2018-04-08T22:36:12.517Z,27.87
2018-04-08T22:38:40.649Z,28.17
2018-04-08T22:41:08.735Z,32.60
2018-04-08T22:43:36.844Z,30.50
2018-04-08T22:46:04.986Z,29.67
2018-04-08T22:48:33.129Z,28.97
2018-04-08T22:51:01.247Z,29.63
2018-04-08T22:53:29.368Z,30.10
2018-04-08T22:55:57.645Z,30.47
2018-04-08T22:58:25.752Z,28.93
2018-04-08T23:00:53.849Z,30.23
2018-04-08T23:03:21.963Z,31.10
2018-04-08T23:05:50.082Z,30.33
2018-04-08T23:08:18.170Z,29.57
2018-04-08T23:10:46.305Z,29.70
2018-04-08T23:13:14.385Z,30.57
2018-04-08T23:15:42.487Z,30.77
2018-04-08T23:18:10.603Z,31.23
2018-04-08T23:20:38.730Z,31.93
2018-04-08T23:23:06.831Z,31.23
2018-04-08T23:25:34.935Z,32.03
2018-04-08T23:28:03.073Z,32.93
2018-04-08T23:30:31.157Z,32.00
2018-04-08T23:32:59.252Z,32.50
2018-04-08T23:35:27.331Z,30.93
2018-04-08T23:37:55.438Z,29.40
2018-04-08T23:40:23.541Z,32.07
2018-04-08T23:42:51.624Z,31.73
2018-04-08T23:45:19.764Z,29.57
2018-04-08T23:47:47.856Z,31.47
2018-04-08T23:50:16.000Z,33.33
2018-04-08T23:52:44.075Z,31.17
2018-04-08T23:55:12.256Z,31.67
2018-04-08T23:57:40.368Z,32.20
